PWSweather.com
Personal Weather Stations
Station Observations
PICKERING
North Yorkshire, PickeringGB

North YorkshirePickeringGB

Lat: 54.2494, Lon: -0.7725

Elevation: 192

Station Type: Oregon Scientific WMR100

http://www.yorkshirewalker.co.uk/weather/

High Low Average
Temperature 33.6°F0.9°C 31.1°F-0.5°C 32.4°F0.2°C
Dew Point 23.0°F-5.0°C 17.6°F-8.0°C 20.4°F-6.4°C
Winds 20.8 mph 33.5 kmh 9.9 mph 15.9 kmh 15.0 mph E24.1 kmh E
Wind Gusts 32.2 mph51.8 kmh 12.1 mph19.5 kmh 23.0 mph37.0 kmh
Humidity 68% 60% 63%
Pressure 29.74 in1007.1 mb 29.53 in1000.0 mb -
Precipitation 0.00 in0.0 mm - -
Hour Temp Dew Point Humidity Winds Wind Gusts Pressure Precip Precip Rate Daily Precip Total
12:00 AM 32.0°F0.0°C 19.4°F-7.0°C 60% 20.1 mph E32.3 kmh E 29.3 mph47.2 kmh 29.74 in1007.1 mb 0.00 in0.0 mm 0.00 in0.0 mm 0.00 in0.0 mm
12:05 AM 32.0°F0.0°C 19.4°F-7.0°C 60% 19.8 mph E31.9 kmh E 29.3 mph47.2 kmh 29.74 in1007.1 mb 0.00 in0.0 mm 0.00 in0.0 mm 0.00 in0.0 mm
12:10 AM 32.0°F0.0°C 19.4°F-7.0°C 61% 15.8 mph E25.4 kmh E 25.7 mph41.4 kmh 29.74 in1007.1 mb 0.00 in0.0 mm 0.00 in0.0 mm 0.00 in0.0 mm
12:15 AM 32.0°F0.0°C 19.4°F-7.0°C 61% 15.8 mph E25.4 kmh E 23.0 mph37.0 kmh 29.74 in1007.1 mb 0.00 in0.0 mm 0.00 in0.0 mm 0.00 in0.0 mm
12:20 AM 32.0°F0.0°C 19.4°F-7.0°C 61% 19.7 mph E31.7 kmh E 26.6 mph42.8 kmh 29.74 in1007.1 mb 0.00 in0.0 mm 0.00 in0.0 mm 0.00 in0.0 mm
12:25 AM 32.0°F0.0°C 19.4°F-7.0°C 60% 20.0 mph E32.2 kmh E 27.3 mph43.9 kmh 29.74 in1007.1 mb 0.00 in0.0 mm 0.00 in0.0 mm 0.00 in0.0 mm
12:30 AM 31.8°F-0.1°C 17.6°F-8.0°C 60% 17.4 mph E28.0 kmh E 27.3 mph43.9 kmh 29.71 in1006.1 mb 0.00 in0.0 mm 0.00 in0.0 mm 0.00 in0.0 mm
12:35 AM 31.8°F-0.1°C 17.6°F-8.0°C 60% 15.1 mph E24.3 kmh E 23.9 mph38.5 kmh 29.71 in1006.1 mb 0.00 in0.0 mm 0.00 in0.0 mm 0.00 in0.0 mm
12:40 AM 31.8°F-0.1°C 17.6°F-8.0°C 60% 17.4 mph E28.0 kmh E 27.3 mph43.9 kmh 29.71 in1006.1 mb 0.00 in0.0 mm 0.00 in0.0 mm 0.00 in0.0 mm
12:45 AM 31.8°F-0.1°C 17.6°F-8.0°C 60% 16.9 mph ENE27.2 kmh ENE 27.3 mph43.9 kmh 29.74 in1007.1 mb 0.00 in0.0 mm 0.00 in0.0 mm 0.00 in0.0 mm
12:50 AM 31.8°F-0.1°C 17.6°F-8.0°C 61% 14.7 mph E23.7 kmh E 25.5 mph41.0 kmh 29.74 in1007.1 mb 0.00 in0.0 mm 0.00 in0.0 mm 0.00 in0.0 mm
12:55 AM 32.0°F0.0°C 19.4°F-7.0°C 60% 14.0 mph E22.5 kmh E 17.4 mph28.0 kmh 29.74 in1007.1 mb 0.00 in0.0 mm 0.00 in0.0 mm 0.00 in0.0 mm
01:00 AM 31.8°F-0.1°C 17.6°F-8.0°C 60% 15.1 mph E24.3 kmh E 17.7 mph28.5 kmh 29.71 in1006.1 mb 0.00 in0.0 mm 0.00 in0.0 mm 0.00 in0.0 mm
01:05 AM 31.8°F-0.1°C 17.6°F-8.0°C 60% 17.1 mph E27.5 kmh E 27.5 mph44.3 kmh 29.71 in1006.1 mb 0.00 in0.0 mm 0.00 in0.0 mm 0.00 in0.0 mm
01:10 AM 31.8°F-0.1°C 17.6°F-8.0°C 61% 17.1 mph E27.5 kmh E 27.5 mph44.3 kmh 29.71 in1006.1 mb 0.00 in0.0 mm 0.00 in0.0 mm 0.00 in0.0 mm
01:15 AM 31.8°F-0.1°C 17.6°F-8.0°C 60% 15.0 mph E24.1 kmh E 19.7 mph31.7 kmh 29.71 in1006.1 mb 0.00 in0.0 mm 0.00 in0.0 mm 0.00 in0.0 mm
01:20 AM 31.8°F-0.1°C 17.6°F-8.0°C 61% 15.0 mph E24.1 kmh E 26.4 mph42.5 kmh 29.71 in1006.1 mb 0.00 in0.0 mm 0.00 in0.0 mm 0.00 in0.0 mm
01:25 AM 31.8°F-0.1°C 17.6°F-8.0°C 61% 14.8 mph E23.8 kmh E 26.4 mph42.5 kmh 29.71 in1006.1 mb 0.00 in0.0 mm 0.00 in0.0 mm 0.00 in0.0 mm
01:30 AM 31.8°F-0.1°C 17.6°F-8.0°C 61% 12.6 mph E20.3 kmh E 17.9 mph28.8 kmh 29.71 in1006.1 mb 0.00 in0.0 mm 0.00 in0.0 mm 0.00 in0.0 mm
01:35 AM 31.8°F-0.1°C 17.6°F-8.0°C 61% 11.9 mph E19.2 kmh E 22.1 mph35.6 kmh 29.71 in1006.1 mb 0.00 in0.0 mm 0.00 in0.0 mm 0.00 in0.0 mm
01:40 AM 31.8°F-0.1°C 17.6°F-8.0°C 61% 13.7 mph E22.0 kmh E 22.1 mph35.6 kmh 29.71 in1006.1 mb 0.00 in0.0 mm 0.00 in0.0 mm 0.00 in0.0 mm
01:45 AM 31.8°F-0.1°C 17.6°F-8.0°C 61% 13.8 mph E22.2 kmh E 24.4 mph39.3 kmh 29.71 in1006.1 mb 0.00 in0.0 mm 0.00 in0.0 mm 0.00 in0.0 mm
01:50 AM 31.8°F-0.1°C 17.6°F-8.0°C 61% 14.7 mph E23.7 kmh E 24.4 mph39.3 kmh 29.71 in1006.1 mb 0.00 in0.0 mm 0.00 in0.0 mm 0.00 in0.0 mm
01:55 AM 31.6°F-0.2°C 17.6°F-8.0°C 61% 14.8 mph E23.8 kmh E 23.9 mph38.5 kmh 29.71 in1006.1 mb 0.00 in0.0 mm 0.00 in0.0 mm 0.00 in0.0 mm
02:00 AM 31.6°F-0.2°C 17.6°F-8.0°C 61% 14.5 mph E23.3 kmh E 24.4 mph39.3 kmh 29.71 in1006.1 mb 0.00 in0.0 mm 0.00 in0.0 mm 0.00 in0.0 mm
02:05 AM 31.8°F-0.1°C 17.6°F-8.0°C 61% 16.2 mph E26.1 kmh E 24.4 mph39.3 kmh 29.71 in1006.1 mb 0.00 in0.0 mm 0.00 in0.0 mm 0.00 in0.0 mm
02:10 AM 31.8°F-0.1°C 17.6°F-8.0°C 61% 17.2 mph E27.7 kmh E 23.3 mph37.5 kmh 29.71 in1006.1 mb 0.00 in0.0 mm 0.00 in0.0 mm 0.00 in0.0 mm
02:15 AM 31.6°F-0.2°C 17.6°F-8.0°C 61% 18.0 mph E29.0 kmh E 31.3 mph50.4 kmh 29.71 in1006.1 mb 0.00 in0.0 mm 0.00 in0.0 mm 0.00 in0.0 mm
02:20 AM 31.6°F-0.2°C 17.6°F-8.0°C 61% 17.4 mph E28.0 kmh E 31.3 mph50.4 kmh 29.71 in1006.1 mb 0.00 in0.0 mm 0.00 in0.0 mm 0.00 in0.0 mm
02:25 AM 31.6°F-0.2°C 17.6°F-8.0°C 60% 16.7 mph E26.9 kmh E 20.4 mph32.8 kmh 29.71 in1006.1 mb 0.00 in0.0 mm 0.00 in0.0 mm 0.00 in0.0 mm
02:30 AM 31.6°F-0.2°C 17.6°F-8.0°C 60% 18.2 mph E29.3 kmh E 25.3 mph40.7 kmh 29.71 in1006.1 mb 0.00 in0.0 mm 0.00 in0.0 mm 0.00 in0.0 mm
02:35 AM 31.8°F-0.1°C 17.6°F-8.0°C 60% 18.9 mph E30.4 kmh E 25.9 mph41.7 kmh 29.71 in1006.1 mb 0.00 in0.0 mm 0.00 in0.0 mm 0.00 in0.0 mm
02:40 AM 31.6°F-0.2°C 17.6°F-8.0°C 61% 19.0 mph ESE30.6 kmh ESE 26.6 mph42.8 kmh 29.71 in1006.1 mb 0.00 in0.0 mm 0.00 in0.0 mm 0.00 in0.0 mm
02:45 AM 31.6°F-0.2°C 17.6°F-8.0°C 61% 17.3 mph SE27.8 kmh SE 26.6 mph42.8 kmh 29.71 in1006.1 mb 0.00 in0.0 mm 0.00 in0.0 mm 0.00 in0.0 mm
02:50 AM 31.6°F-0.2°C 17.6°F-8.0°C 61% 18.0 mph E29.0 kmh E 22.4 mph36.0 kmh 29.71 in1006.1 mb 0.00 in0.0 mm 0.00 in0.0 mm 0.00 in0.0 mm
02:55 AM 31.6°F-0.2°C 17.6°F-8.0°C 61% 18.4 mph E29.6 kmh E 22.4 mph36.0 kmh 29.71 in1006.1 mb 0.00 in0.0 mm 0.00 in0.0 mm 0.00 in0.0 mm
03:00 AM 31.6°F-0.2°C 17.6°F-8.0°C 60% 18.1 mph E29.1 kmh E 28.4 mph45.7 kmh 29.71 in1006.1 mb 0.00 in0.0 mm 0.00 in0.0 mm 0.00 in0.0 mm
03:05 AM 31.6°F-0.2°C 17.6°F-8.0°C 60% 17.9 mph E28.8 kmh E 28.4 mph45.7 kmh 29.71 in1006.1 mb 0.00 in0.0 mm 0.00 in0.0 mm 0.00 in0.0 mm
03:10 AM 31.6°F-0.2°C 17.6°F-8.0°C 61% 17.8 mph E28.6 kmh E 22.8 mph36.7 kmh 29.71 in1006.1 mb 0.00 in0.0 mm 0.00 in0.0 mm 0.00 in0.0 mm
03:15 AM 31.6°F-0.2°C 17.6°F-8.0°C 61% 18.4 mph E29.6 kmh E 23.0 mph37.0 kmh 29.71 in1006.1 mb 0.00 in0.0 mm 0.00 in0.0 mm 0.00 in0.0 mm
03:20 AM 31.6°F-0.2°C 17.6°F-8.0°C 61% 17.6 mph E28.3 kmh E 23.0 mph37.0 kmh 29.71 in1006.1 mb 0.00 in0.0 mm 0.00 in0.0 mm 0.00 in0.0 mm
03:25 AM 31.6°F-0.2°C 17.6°F-8.0°C 61% 16.6 mph E26.7 kmh E 23.0 mph37.0 kmh 29.71 in1006.1 mb 0.00 in0.0 mm 0.00 in0.0 mm 0.00 in0.0 mm
03:30 AM 31.6°F-0.2°C 17.6°F-8.0°C 60% 17.6 mph E28.3 kmh E 26.6 mph42.8 kmh 29.68 in1005.1 mb 0.00 in0.0 mm 0.00 in0.0 mm 0.00 in0.0 mm
03:35 AM 31.6°F-0.2°C 17.6°F-8.0°C 60% 19.4 mph E31.2 kmh E 26.6 mph42.8 kmh 29.68 in1005.1 mb 0.00 in0.0 mm 0.00 in0.0 mm 0.00 in0.0 mm
03:40 AM 31.6°F-0.2°C 17.6°F-8.0°C 60% 18.3 mph ESE29.5 kmh ESE 25.9 mph41.7 kmh 29.68 in1005.1 mb 0.00 in0.0 mm 0.00 in0.0 mm 0.00 in0.0 mm
03:45 AM 31.6°F-0.2°C 17.6°F-8.0°C 60% 16.4 mph E26.4 kmh E 25.9 mph41.7 kmh 29.68 in1005.1 mb 0.00 in0.0 mm 0.00 in0.0 mm 0.00 in0.0 mm
03:50 AM 31.6°F-0.2°C 17.6°F-8.0°C 61% 17.2 mph E27.7 kmh E 25.7 mph41.4 kmh 29.68 in1005.1 mb 0.00 in0.0 mm 0.00 in0.0 mm 0.00 in0.0 mm
03:55 AM 31.8°F-0.1°C 17.6°F-8.0°C 61% 18.0 mph ESE29.0 kmh ESE 25.7 mph41.4 kmh 29.68 in1005.1 mb 0.00 in0.0 mm 0.00 in0.0 mm 0.00 in0.0 mm
04:00 AM 31.8°F-0.1°C 17.6°F-8.0°C 61% 14.8 mph E23.8 kmh E 19.0 mph30.6 kmh 29.68 in1005.1 mb 0.00 in0.0 mm 0.00 in0.0 mm 0.00 in0.0 mm
04:05 AM 31.6°F-0.2°C 17.6°F-8.0°C 61% 15.3 mph E24.6 kmh E 24.6 mph39.6 kmh 29.68 in1005.1 mb 0.00 in0.0 mm 0.00 in0.0 mm 0.00 in0.0 mm
04:10 AM 31.6°F-0.2°C 17.6°F-8.0°C 61% 17.7 mph E28.5 kmh E 24.6 mph39.6 kmh 29.68 in1005.1 mb 0.00 in0.0 mm 0.00 in0.0 mm 0.00 in0.0 mm
04:15 AM 31.6°F-0.2°C 17.6°F-8.0°C 61% 18.9 mph E30.4 kmh E 25.3 mph40.7 kmh 29.68 in1005.1 mb 0.00 in0.0 mm 0.00 in0.0 mm 0.00 in0.0 mm
04:20 AM 31.6°F-0.2°C 17.6°F-8.0°C 61% 18.2 mph E29.3 kmh E 25.3 mph40.7 kmh 29.68 in1005.1 mb 0.00 in0.0 mm 0.00 in0.0 mm 0.00 in0.0 mm
04:25 AM 31.6°F-0.2°C 17.6°F-8.0°C 61% 17.1 mph E27.5 kmh E 23.9 mph38.5 kmh 29.68 in1005.1 mb 0.00 in0.0 mm 0.00 in0.0 mm 0.00 in0.0 mm
04:30 AM 31.6°F-0.2°C 17.6°F-8.0°C 60% 17.6 mph E28.3 kmh E 25.9 mph41.7 kmh 29.68 in1005.1 mb 0.00 in0.0 mm 0.00 in0.0 mm 0.00 in0.0 mm
04:35 AM 31.6°F-0.2°C 17.6°F-8.0°C 61% 18.0 mph E29.0 kmh E 25.9 mph41.7 kmh 29.68 in1005.1 mb 0.00 in0.0 mm 0.00 in0.0 mm 0.00 in0.0 mm
04:40 AM 31.5°F-0.3°C 17.6°F-8.0°C 61% 18.2 mph E29.3 kmh E 24.4 mph39.3 kmh 29.68 in1005.1 mb 0.00 in0.0 mm 0.00 in0.0 mm 0.00 in0.0 mm
04:45 AM 31.5°F-0.3°C 17.6°F-8.0°C 61% 18.9 mph E30.4 kmh E 24.4 mph39.3 kmh 29.68 in1005.1 mb 0.00 in0.0 mm 0.00 in0.0 mm 0.00 in0.0 mm
04:50 AM 31.5°F-0.3°C 17.6°F-8.0°C 61% 18.3 mph E29.5 kmh E 26.6 mph42.8 kmh 29.68 in1005.1 mb 0.00 in0.0 mm 0.00 in0.0 mm 0.00 in0.0 mm
04:55 AM 31.5°F-0.3°C 17.6°F-8.0°C 61% 18.1 mph E29.1 kmh E 26.6 mph42.8 kmh 29.68 in1005.1 mb 0.00 in0.0 mm 0.00 in0.0 mm 0.00 in0.0 mm
05:00 AM 31.5°F-0.3°C 17.6°F-8.0°C 61% 18.9 mph E30.4 kmh E 25.7 mph41.4 kmh 29.68 in1005.1 mb 0.00 in0.0 mm 0.00 in0.0 mm 0.00 in0.0 mm
05:05 AM 31.5°F-0.3°C 17.6°F-8.0°C 61% 19.3 mph E31.1 kmh E 22.8 mph36.7 kmh 29.68 in1005.1 mb 0.00 in0.0 mm 0.00 in0.0 mm 0.00 in0.0 mm
05:10 AM 31.5°F-0.3°C 17.6°F-8.0°C 61% 19.0 mph E30.6 kmh E 21.9 mph35.2 kmh 29.68 in1005.1 mb 0.00 in0.0 mm 0.00 in0.0 mm 0.00 in0.0 mm
05:15 AM 31.5°F-0.3°C 17.6°F-8.0°C 61% 17.2 mph E27.7 kmh E 24.6 mph39.6 kmh 29.68 in1005.1 mb 0.00 in0.0 mm 0.00 in0.0 mm 0.00 in0.0 mm
05:20 AM 31.5°F-0.3°C 17.6°F-8.0°C 61% 17.8 mph E28.6 kmh E 24.6 mph39.6 kmh 29.68 in1005.1 mb 0.00 in0.0 mm 0.00 in0.0 mm 0.00 in0.0 mm
05:25 AM 31.5°F-0.3°C 17.6°F-8.0°C 61% 16.6 mph E26.7 kmh E 23.5 mph37.8 kmh 29.68 in1005.1 mb 0.00 in0.0 mm 0.00 in0.0 mm 0.00 in0.0 mm
05:30 AM 31.5°F-0.3°C 17.6°F-8.0°C 61% 16.5 mph E26.6 kmh E 22.6 mph36.4 kmh 29.68 in1005.1 mb 0.00 in0.0 mm 0.00 in0.0 mm 0.00 in0.0 mm
05:35 AM 31.5°F-0.3°C 17.6°F-8.0°C 62% 17.6 mph E28.3 kmh E 22.8 mph36.7 kmh 29.68 in1005.1 mb 0.00 in0.0 mm 0.00 in0.0 mm 0.00 in0.0 mm
05:40 AM 31.5°F-0.3°C 17.6°F-8.0°C 62% 15.3 mph E24.6 kmh E 22.8 mph36.7 kmh 29.68 in1005.1 mb 0.00 in0.0 mm 0.00 in0.0 mm 0.00 in0.0 mm
05:45 AM 31.5°F-0.3°C 17.6°F-8.0°C 62% 15.8 mph E25.4 kmh E 28.9 mph46.5 kmh 29.68 in1005.1 mb 0.00 in0.0 mm 0.00 in0.0 mm 0.00 in0.0 mm
05:50 AM 31.5°F-0.3°C 17.6°F-8.0°C 62% 18.7 mph E30.1 kmh E 28.9 mph46.5 kmh 29.68 in1005.1 mb 0.00 in0.0 mm 0.00 in0.0 mm 0.00 in0.0 mm
05:55 AM 31.3°F-0.4°C 17.6°F-8.0°C 62% 16.1 mph E25.9 kmh E 28.0 mph45.1 kmh 29.68 in1005.1 mb 0.00 in0.0 mm 0.00 in0.0 mm 0.00 in0.0 mm
06:00 AM 31.3°F-0.4°C 17.6°F-8.0°C 62% 15.1 mph E24.3 kmh E 25.5 mph41.0 kmh 29.68 in1005.1 mb 0.00 in0.0 mm 0.00 in0.0 mm 0.00 in0.0 mm
06:05 AM 31.3°F-0.4°C 17.6°F-8.0°C 62% 19.0 mph ESE30.6 kmh ESE 25.5 mph41.0 kmh 29.68 in1005.1 mb 0.00 in0.0 mm 0.00 in0.0 mm 0.00 in0.0 mm
06:10 AM 31.3°F-0.4°C 17.6°F-8.0°C 62% 17.7 mph SE28.5 kmh SE 25.7 mph41.4 kmh 29.68 in1005.1 mb 0.00 in0.0 mm 0.00 in0.0 mm 0.00 in0.0 mm
06:15 AM 31.3°F-0.4°C 19.4°F-7.0°C 63% 15.6 mph ESE25.1 kmh ESE 25.7 mph41.4 kmh 29.68 in1005.1 mb 0.00 in0.0 mm 0.00 in0.0 mm 0.00 in0.0 mm
06:20 AM 31.3°F-0.4°C 19.4°F-7.0°C 63% 12.8 mph E20.6 kmh E 22.6 mph36.4 kmh 29.68 in1005.1 mb 0.00 in0.0 mm 0.00 in0.0 mm 0.00 in0.0 mm
06:25 AM 31.3°F-0.4°C 17.6°F-8.0°C 62% 12.7 mph E20.4 kmh E 22.4 mph36.0 kmh 29.68 in1005.1 mb 0.00 in0.0 mm 0.00 in0.0 mm 0.00 in0.0 mm
06:30 AM 31.3°F-0.4°C 17.6°F-8.0°C 62% 12.7 mph E20.4 kmh E 22.4 mph36.0 kmh 29.65 in1004.1 mb 0.00 in0.0 mm 0.00 in0.0 mm 0.00 in0.0 mm
06:35 AM 31.3°F-0.4°C 19.4°F-7.0°C 63% 15.2 mph E24.5 kmh E 22.4 mph36.0 kmh 29.65 in1004.1 mb 0.00 in0.0 mm 0.00 in0.0 mm 0.00 in0.0 mm
06:40 AM 31.3°F-0.4°C 17.6°F-8.0°C 62% 18.6 mph ESE29.9 kmh ESE 32.2 mph51.8 kmh 29.65 in1004.1 mb 0.00 in0.0 mm 0.00 in0.0 mm 0.00 in0.0 mm
06:45 AM 31.3°F-0.4°C 17.6°F-8.0°C 62% 20.8 mph E33.5 kmh E 32.2 mph51.8 kmh 29.65 in1004.1 mb 0.00 in0.0 mm 0.00 in0.0 mm 0.00 in0.0 mm
06:50 AM 31.3°F-0.4°C 19.4°F-7.0°C 63% 17.7 mph E28.5 kmh E 26.2 mph42.2 kmh 29.65 in1004.1 mb 0.00 in0.0 mm 0.00 in0.0 mm 0.00 in0.0 mm
06:55 AM 31.3°F-0.4°C 19.4°F-7.0°C 63% 13.4 mph E21.6 kmh E 19.7 mph31.7 kmh 29.65 in1004.1 mb 0.00 in0.0 mm 0.00 in0.0 mm 0.00 in0.0 mm
07:00 AM 31.1°F-0.5°C 19.4°F-7.0°C 63% 12.7 mph E20.4 kmh E 19.5 mph31.4 kmh 29.65 in1004.1 mb 0.00 in0.0 mm 0.00 in0.0 mm 0.00 in0.0 mm
07:05 AM 31.3°F-0.4°C 19.4°F-7.0°C 63% 14.3 mph E23.0 kmh E 26.6 mph42.8 kmh 29.65 in1004.1 mb 0.00 in0.0 mm 0.00 in0.0 mm 0.00 in0.0 mm
07:10 AM 31.3°F-0.4°C 19.4°F-7.0°C 63% 14.8 mph E23.8 kmh E 26.6 mph42.8 kmh 29.65 in1004.1 mb 0.00 in0.0 mm 0.00 in0.0 mm 0.00 in0.0 mm
07:15 AM 31.3°F-0.4°C 19.4°F-7.0°C 63% 15.5 mph E24.9 kmh E 17.9 mph28.8 kmh 29.65 in1004.1 mb 0.00 in0.0 mm 0.00 in0.0 mm 0.00 in0.0 mm
07:20 AM 31.3°F-0.4°C 19.4°F-7.0°C 63% 16.0 mph E25.7 kmh E 17.9 mph28.8 kmh 29.65 in1004.1 mb 0.00 in0.0 mm 0.00 in0.0 mm 0.00 in0.0 mm
07:25 AM 31.5°F-0.3°C 19.4°F-7.0°C 63% 15.2 mph E24.5 kmh E 17.7 mph28.5 kmh 29.65 in1004.1 mb 0.00 in0.0 mm 0.00 in0.0 mm 0.00 in0.0 mm
07:30 AM 31.5°F-0.3°C 19.4°F-7.0°C 63% 14.9 mph E24.0 kmh E 17.7 mph28.5 kmh 29.65 in1004.1 mb 0.00 in0.0 mm 0.00 in0.0 mm 0.00 in0.0 mm
07:35 AM 31.5°F-0.3°C 19.4°F-7.0°C 63% 14.3 mph E23.0 kmh E 22.4 mph36.0 kmh 29.65 in1004.1 mb 0.00 in0.0 mm 0.00 in0.0 mm 0.00 in0.0 mm
07:40 AM 31.5°F-0.3°C 19.4°F-7.0°C 63% 13.6 mph ESE21.9 kmh ESE 22.4 mph36.0 kmh 29.65 in1004.1 mb 0.00 in0.0 mm 0.00 in0.0 mm 0.00 in0.0 mm
07:45 AM 31.5°F-0.3°C 19.4°F-7.0°C 63% 17.2 mph E27.7 kmh E 25.5 mph41.0 kmh 29.65 in1004.1 mb 0.00 in0.0 mm 0.00 in0.0 mm 0.00 in0.0 mm
07:50 AM 31.5°F-0.3°C 19.4°F-7.0°C 63% 19.1 mph E30.7 kmh E 25.5 mph41.0 kmh 29.65 in1004.1 mb 0.00 in0.0 mm 0.00 in0.0 mm 0.00 in0.0 mm
07:55 AM 31.6°F-0.2°C 19.4°F-7.0°C 63% 19.1 mph E30.7 kmh E 30.0 mph48.3 kmh 29.65 in1004.1 mb 0.00 in0.0 mm 0.00 in0.0 mm 0.00 in0.0 mm
08:00 AM 31.6°F-0.2°C 19.4°F-7.0°C 63% 17.0 mph E27.4 kmh E 30.0 mph48.3 kmh 29.65 in1004.1 mb 0.00 in0.0 mm 0.00 in0.0 mm 0.00 in0.0 mm
08:05 AM 31.8°F-0.1°C 19.4°F-7.0°C 63% 17.1 mph E27.5 kmh E 27.5 mph44.3 kmh 29.65 in1004.1 mb 0.00 in0.0 mm 0.00 in0.0 mm 0.00 in0.0 mm
08:10 AM 31.8°F-0.1°C 19.4°F-7.0°C 62% 18.6 mph E29.9 kmh E 26.6 mph42.8 kmh 29.65 in1004.1 mb 0.00 in0.0 mm 0.00 in0.0 mm 0.00 in0.0 mm
08:15 AM 32.0°F0.0°C 19.4°F-7.0°C 62% 18.8 mph E30.3 kmh E 26.6 mph42.8 kmh 29.65 in1004.1 mb 0.00 in0.0 mm 0.00 in0.0 mm 0.00 in0.0 mm
08:20 AM 32.0°F0.0°C 19.4°F-7.0°C 62% 18.9 mph E30.4 kmh E 25.1 mph40.4 kmh 29.65 in1004.1 mb 0.00 in0.0 mm 0.00 in0.0 mm 0.00 in0.0 mm
08:25 AM 32.0°F0.0°C 19.4°F-7.0°C 62% 17.7 mph E28.5 kmh E 27.7 mph44.6 kmh 29.65 in1004.1 mb 0.00 in0.0 mm 0.00 in0.0 mm 0.00 in0.0 mm
08:30 AM 32.0°F0.0°C 19.4°F-7.0°C 62% 14.8 mph E23.8 kmh E 27.7 mph44.6 kmh 29.65 in1004.1 mb 0.00 in0.0 mm 0.00 in0.0 mm 0.00 in0.0 mm
08:35 AM 32.0°F0.0°C 19.4°F-7.0°C 62% 13.8 mph E22.2 kmh E 20.1 mph32.3 kmh 29.65 in1004.1 mb 0.00 in0.0 mm 0.00 in0.0 mm 0.00 in0.0 mm
08:40 AM 32.0°F0.0°C 19.4°F-7.0°C 62% 14.4 mph E23.2 kmh E 20.1 mph32.3 kmh 29.65 in1004.1 mb 0.00 in0.0 mm 0.00 in0.0 mm 0.00 in0.0 mm
08:45 AM 32.2°F0.1°C 19.4°F-7.0°C 62% 17.1 mph E27.5 kmh E 26.4 mph42.5 kmh 29.65 in1004.1 mb 0.00 in0.0 mm 0.00 in0.0 mm 0.00 in0.0 mm
08:50 AM 32.4°F0.2°C 19.4°F-7.0°C 62% 18.8 mph E30.3 kmh E 27.7 mph44.6 kmh 29.65 in1004.1 mb 0.00 in0.0 mm 0.00 in0.0 mm 0.00 in0.0 mm
08:55 AM 32.4°F0.2°C 19.4°F-7.0°C 62% 18.0 mph E29.0 kmh E 28.9 mph46.5 kmh 29.65 in1004.1 mb 0.00 in0.0 mm 0.00 in0.0 mm 0.00 in0.0 mm
09:00 AM 32.2°F0.1°C 19.4°F-7.0°C 62% 16.6 mph E26.7 kmh E 28.9 mph46.5 kmh 29.65 in1004.1 mb 0.00 in0.0 mm 0.00 in0.0 mm 0.00 in0.0 mm
09:05 AM 32.4°F0.2°C 19.4°F-7.0°C 62% 15.1 mph E24.3 kmh E 19.5 mph31.4 kmh 29.65 in1004.1 mb 0.00 in0.0 mm 0.00 in0.0 mm 0.00 in0.0 mm
09:10 AM 32.4°F0.2°C 19.4°F-7.0°C 62% 15.2 mph E24.5 kmh E 18.6 mph29.9 kmh 29.65 in1004.1 mb 0.00 in0.0 mm 0.00 in0.0 mm 0.00 in0.0 mm
09:15 AM 32.4°F0.2°C 19.4°F-7.0°C 62% 16.0 mph E25.7 kmh E 19.0 mph30.6 kmh 29.65 in1004.1 mb 0.00 in0.0 mm 0.00 in0.0 mm 0.00 in0.0 mm
09:20 AM 32.4°F0.2°C 19.4°F-7.0°C 62% 17.6 mph E28.3 kmh E 21.9 mph35.2 kmh 29.65 in1004.1 mb 0.00 in0.0 mm 0.00 in0.0 mm 0.00 in0.0 mm
09:25 AM 32.4°F0.2°C 19.4°F-7.0°C 62% 18.0 mph E29.0 kmh E 21.9 mph35.2 kmh 29.65 in1004.1 mb 0.00 in0.0 mm 0.00 in0.0 mm 0.00 in0.0 mm
09:30 AM 32.4°F0.2°C 19.4°F-7.0°C 62% 16.0 mph E25.7 kmh E 19.9 mph32.0 kmh 29.65 in1004.1 mb 0.00 in0.0 mm 0.00 in0.0 mm 0.00 in0.0 mm
09:35 AM 32.4°F0.2°C 19.4°F-7.0°C 62% 13.5 mph ESE21.7 kmh ESE 21.3 mph34.3 kmh 29.65 in1004.1 mb 0.00 in0.0 mm 0.00 in0.0 mm 0.00 in0.0 mm
09:40 AM 32.4°F0.2°C 19.4°F-7.0°C 63% 16.2 mph E26.1 kmh E 29.3 mph47.2 kmh 29.65 in1004.1 mb 0.00 in0.0 mm 0.00 in0.0 mm 0.00 in0.0 mm
09:45 AM 32.4°F0.2°C 19.4°F-7.0°C 63% 19.8 mph E31.9 kmh E 29.3 mph47.2 kmh 29.65 in1004.1 mb 0.00 in0.0 mm 0.00 in0.0 mm 0.00 in0.0 mm
09:50 AM 32.4°F0.2°C 19.4°F-7.0°C 63% 18.6 mph ESE29.9 kmh ESE 27.5 mph44.3 kmh 29.65 in1004.1 mb 0.00 in0.0 mm 0.00 in0.0 mm 0.00 in0.0 mm
09:55 AM 32.4°F0.2°C 19.4°F-7.0°C 63% 18.7 mph E30.1 kmh E 29.3 mph47.2 kmh 29.65 in1004.1 mb 0.00 in0.0 mm 0.00 in0.0 mm 0.00 in0.0 mm
10:00 AM 32.4°F0.2°C 19.4°F-7.0°C 63% 16.7 mph E26.9 kmh E 29.3 mph47.2 kmh 29.65 in1004.1 mb 0.00 in0.0 mm 0.00 in0.0 mm 0.00 in0.0 mm
10:05 AM 32.4°F0.2°C 19.4°F-7.0°C 63% 15.1 mph E24.3 kmh E 25.1 mph40.4 kmh 29.65 in1004.1 mb 0.00 in0.0 mm 0.00 in0.0 mm 0.00 in0.0 mm
10:10 AM 32.4°F0.2°C 19.4°F-7.0°C 63% 16.1 mph E25.9 kmh E 25.1 mph40.4 kmh 29.65 in1004.1 mb 0.00 in0.0 mm 0.00 in0.0 mm 0.00 in0.0 mm
10:15 AM 32.4°F0.2°C 19.4°F-7.0°C 63% 14.3 mph E23.0 kmh E 22.4 mph36.0 kmh 29.65 in1004.1 mb 0.00 in0.0 mm 0.00 in0.0 mm 0.00 in0.0 mm
10:20 AM 32.4°F0.2°C 19.4°F-7.0°C 63% 12.7 mph E20.4 kmh E 16.6 mph26.7 kmh 29.65 in1004.1 mb 0.00 in0.0 mm 0.00 in0.0 mm 0.00 in0.0 mm
10:25 AM 32.4°F0.2°C 19.4°F-7.0°C 63% 13.2 mph ENE21.2 kmh ENE 23.3 mph37.5 kmh 29.65 in1004.1 mb 0.00 in0.0 mm 0.00 in0.0 mm 0.00 in0.0 mm
10:30 AM 32.4°F0.2°C 19.4°F-7.0°C 62% 15.9 mph E25.6 kmh E 23.3 mph37.5 kmh 29.65 in1004.1 mb 0.00 in0.0 mm 0.00 in0.0 mm 0.00 in0.0 mm
10:35 AM 32.4°F0.2°C 19.4°F-7.0°C 62% 16.9 mph E27.2 kmh E 23.3 mph37.5 kmh 29.65 in1004.1 mb 0.00 in0.0 mm 0.00 in0.0 mm 0.00 in0.0 mm
10:40 AM 32.5°F0.3°C 21.2°F-6.0°C 62% 14.9 mph E24.0 kmh E 20.1 mph32.3 kmh 29.65 in1004.1 mb 0.00 in0.0 mm 0.00 in0.0 mm 0.00 in0.0 mm
10:45 AM 32.5°F0.3°C 21.2°F-6.0°C 62% 15.4 mph E24.8 kmh E 27.1 mph43.6 kmh 29.65 in1004.1 mb 0.00 in0.0 mm 0.00 in0.0 mm 0.00 in0.0 mm
10:50 AM 32.5°F0.3°C 21.2°F-6.0°C 62% 17.0 mph E27.4 kmh E 27.1 mph43.6 kmh 29.65 in1004.1 mb 0.00 in0.0 mm 0.00 in0.0 mm 0.00 in0.0 mm
10:55 AM 32.5°F0.3°C 21.2°F-6.0°C 62% 17.3 mph ENE27.8 kmh ENE 26.2 mph42.2 kmh 29.65 in1004.1 mb 0.00 in0.0 mm 0.00 in0.0 mm 0.00 in0.0 mm
11:00 AM 32.5°F0.3°C 21.2°F-6.0°C 62% 14.3 mph ENE23.0 kmh ENE 22.6 mph36.4 kmh 29.65 in1004.1 mb 0.00 in0.0 mm 0.00 in0.0 mm 0.00 in0.0 mm
11:05 AM 32.5°F0.3°C 21.2°F-6.0°C 61% 15.6 mph E25.1 kmh E 23.5 mph37.8 kmh 29.65 in1004.1 mb 0.00 in0.0 mm 0.00 in0.0 mm 0.00 in0.0 mm
11:10 AM 32.5°F0.3°C 21.2°F-6.0°C 61% 19.5 mph E31.4 kmh E 26.4 mph42.5 kmh 29.65 in1004.1 mb 0.00 in0.0 mm 0.00 in0.0 mm 0.00 in0.0 mm
11:15 AM 32.7°F0.4°C 21.2°F-6.0°C 61% 18.1 mph E29.1 kmh E 26.4 mph42.5 kmh 29.65 in1004.1 mb 0.00 in0.0 mm 0.00 in0.0 mm 0.00 in0.0 mm
11:20 AM 32.7°F0.4°C 21.2°F-6.0°C 61% 15.1 mph ENE24.3 kmh ENE 23.3 mph37.5 kmh 29.65 in1004.1 mb 0.00 in0.0 mm 0.00 in0.0 mm 0.00 in0.0 mm
11:25 AM 32.7°F0.4°C 21.2°F-6.0°C 61% 13.8 mph E22.2 kmh E 23.3 mph37.5 kmh 29.65 in1004.1 mb 0.00 in0.0 mm 0.00 in0.0 mm 0.00 in0.0 mm
11:30 AM 32.7°F0.4°C 21.2°F-6.0°C 61% 15.4 mph E24.8 kmh E 23.3 mph37.5 kmh 29.62 in1003.0 mb 0.00 in0.0 mm 0.00 in0.0 mm 0.00 in0.0 mm
11:35 AM 32.5°F0.3°C 21.2°F-6.0°C 62% 14.6 mph E23.5 kmh E 19.9 mph32.0 kmh 29.62 in1003.0 mb 0.00 in0.0 mm 0.00 in0.0 mm 0.00 in0.0 mm
11:40 AM 32.5°F0.3°C 21.2°F-6.0°C 62% 12.2 mph ESE19.6 kmh ESE 23.9 mph38.5 kmh 29.62 in1003.0 mb 0.00 in0.0 mm 0.00 in0.0 mm 0.00 in0.0 mm
11:45 AM 32.5°F0.3°C 21.2°F-6.0°C 62% 15.1 mph E24.3 kmh E 24.2 mph38.9 kmh 29.62 in1003.0 mb 0.00 in0.0 mm 0.00 in0.0 mm 0.00 in0.0 mm
11:50 AM 32.5°F0.3°C 21.2°F-6.0°C 62% 15.9 mph E25.6 kmh E 24.2 mph38.9 kmh 29.62 in1003.0 mb 0.00 in0.0 mm 0.00 in0.0 mm 0.00 in0.0 mm
11:55 AM 32.5°F0.3°C 21.2°F-6.0°C 62% 14.9 mph E24.0 kmh E 19.2 mph30.9 kmh 29.62 in1003.0 mb 0.00 in0.0 mm 0.00 in0.0 mm 0.00 in0.0 mm
12:00 PM 32.5°F0.3°C 21.2°F-6.0°C 63% 13.4 mph E21.6 kmh E 17.9 mph28.8 kmh 29.65 in1004.1 mb 0.00 in0.0 mm 0.00 in0.0 mm 0.00 in0.0 mm
12:05 PM 32.5°F0.3°C 21.2°F-6.0°C 63% 12.1 mph E19.5 kmh E 17.7 mph28.5 kmh 29.65 in1004.1 mb 0.00 in0.0 mm 0.00 in0.0 mm 0.00 in0.0 mm
12:10 PM 32.5°F0.3°C 21.2°F-6.0°C 63% 15.6 mph E25.1 kmh E 21.9 mph35.2 kmh 29.65 in1004.1 mb 0.00 in0.0 mm 0.00 in0.0 mm 0.00 in0.0 mm
12:15 PM 32.5°F0.3°C 21.2°F-6.0°C 63% 14.5 mph E23.3 kmh E 21.9 mph35.2 kmh 29.62 in1003.0 mb 0.00 in0.0 mm 0.00 in0.0 mm 0.00 in0.0 mm
12:20 PM 32.5°F0.3°C 21.2°F-6.0°C 63% 11.0 mph E17.7 kmh E 15.4 mph24.8 kmh 29.62 in1003.0 mb 0.00 in0.0 mm 0.00 in0.0 mm 0.00 in0.0 mm
12:25 PM 32.5°F0.3°C 21.2°F-6.0°C 63% 12.2 mph ESE19.6 kmh ESE 20.8 mph33.5 kmh 29.62 in1003.0 mb 0.00 in0.0 mm 0.00 in0.0 mm 0.00 in0.0 mm
12:30 PM 32.5°F0.3°C 21.2°F-6.0°C 63% 15.8 mph ESE25.4 kmh ESE 22.4 mph36.0 kmh 29.62 in1003.0 mb 0.00 in0.0 mm 0.00 in0.0 mm 0.00 in0.0 mm
12:35 PM 32.7°F0.4°C 21.2°F-6.0°C 62% 15.9 mph E25.6 kmh E 22.4 mph36.0 kmh 29.62 in1003.0 mb 0.00 in0.0 mm 0.00 in0.0 mm 0.00 in0.0 mm
12:40 PM 32.7°F0.4°C 21.2°F-6.0°C 62% 13.3 mph E21.4 kmh E 22.4 mph36.0 kmh 29.62 in1003.0 mb 0.00 in0.0 mm 0.00 in0.0 mm 0.00 in0.0 mm
12:45 PM 32.7°F0.4°C 21.2°F-6.0°C 62% 16.8 mph E27.0 kmh E 26.2 mph42.2 kmh 29.62 in1003.0 mb 0.00 in0.0 mm 0.00 in0.0 mm 0.00 in0.0 mm
12:50 PM 32.9°F0.5°C 21.2°F-6.0°C 62% 18.4 mph E29.6 kmh E 26.2 mph42.2 kmh 29.62 in1003.0 mb 0.00 in0.0 mm 0.00 in0.0 mm 0.00 in0.0 mm
12:55 PM 33.3°F0.7°C 21.2°F-6.0°C 62% 15.3 mph E24.6 kmh E 22.6 mph36.4 kmh 29.62 in1003.0 mb 0.00 in0.0 mm 0.00 in0.0 mm 0.00 in0.0 mm
01:00 PM 33.3°F0.7°C 21.2°F-6.0°C 61% 15.2 mph E24.5 kmh E 25.1 mph40.4 kmh 29.62 in1003.0 mb 0.00 in0.0 mm 0.00 in0.0 mm 0.00 in0.0 mm
01:05 PM 33.1°F0.6°C 21.2°F-6.0°C 61% 15.3 mph E24.6 kmh E 25.1 mph40.4 kmh 29.62 in1003.0 mb 0.00 in0.0 mm 0.00 in0.0 mm 0.00 in0.0 mm
01:10 PM 32.9°F0.5°C 21.2°F-6.0°C 61% 13.5 mph ENE21.7 kmh ENE 24.4 mph39.3 kmh 29.62 in1003.0 mb 0.00 in0.0 mm 0.00 in0.0 mm 0.00 in0.0 mm
01:15 PM 33.1°F0.6°C 21.2°F-6.0°C 61% 15.8 mph E25.4 kmh E 25.9 mph41.7 kmh 29.62 in1003.0 mb 0.00 in0.0 mm 0.00 in0.0 mm 0.00 in0.0 mm
01:20 PM 33.1°F0.6°C 21.2°F-6.0°C 61% 17.4 mph E28.0 kmh E 25.9 mph41.7 kmh 29.62 in1003.0 mb 0.00 in0.0 mm 0.00 in0.0 mm 0.00 in0.0 mm
01:25 PM 33.1°F0.6°C 21.2°F-6.0°C 61% 15.4 mph E24.8 kmh E 23.9 mph38.5 kmh 29.62 in1003.0 mb 0.00 in0.0 mm 0.00 in0.0 mm 0.00 in0.0 mm
01:30 PM 33.1°F0.6°C 21.2°F-6.0°C 61% 14.1 mph E22.7 kmh E 17.4 mph28.0 kmh 29.62 in1003.0 mb 0.00 in0.0 mm 0.00 in0.0 mm 0.00 in0.0 mm
01:35 PM 33.1°F0.6°C 21.2°F-6.0°C 61% 13.4 mph E21.6 kmh E 19.2 mph30.9 kmh 29.62 in1003.0 mb 0.00 in0.0 mm 0.00 in0.0 mm 0.00 in0.0 mm
01:40 PM 33.4°F0.8°C 21.2°F-6.0°C 61% 13.4 mph E21.6 kmh E 19.2 mph30.9 kmh 29.62 in1003.0 mb 0.00 in0.0 mm 0.00 in0.0 mm 0.00 in0.0 mm
01:45 PM 33.3°F0.7°C 21.2°F-6.0°C 61% 12.8 mph E20.6 kmh E 19.5 mph31.4 kmh 29.59 in1002.0 mb 0.00 in0.0 mm 0.00 in0.0 mm 0.00 in0.0 mm
01:50 PM 33.3°F0.7°C 21.2°F-6.0°C 61% 13.9 mph E22.4 kmh E 27.3 mph43.9 kmh 29.59 in1002.0 mb 0.00 in0.0 mm 0.00 in0.0 mm 0.00 in0.0 mm
01:55 PM 33.3°F0.7°C 21.2°F-6.0°C 61% 13.9 mph E22.4 kmh E 27.3 mph43.9 kmh 29.59 in1002.0 mb 0.00 in0.0 mm 0.00 in0.0 mm 0.00 in0.0 mm
02:00 PM 33.3°F0.7°C 21.2°F-6.0°C 61% 12.9 mph E20.8 kmh E 17.7 mph28.5 kmh 29.59 in1002.0 mb 0.00 in0.0 mm 0.00 in0.0 mm 0.00 in0.0 mm
02:05 PM 33.3°F0.7°C 21.2°F-6.0°C 61% 16.4 mph E26.4 kmh E 27.5 mph44.3 kmh 29.59 in1002.0 mb 0.00 in0.0 mm 0.00 in0.0 mm 0.00 in0.0 mm
02:10 PM 33.1°F0.6°C 21.2°F-6.0°C 60% 18.1 mph E29.1 kmh E 27.5 mph44.3 kmh 29.59 in1002.0 mb 0.00 in0.0 mm 0.00 in0.0 mm 0.00 in0.0 mm
02:15 PM 33.1°F0.6°C 21.2°F-6.0°C 61% 15.0 mph E24.1 kmh E 27.5 mph44.3 kmh 29.59 in1002.0 mb 0.00 in0.0 mm 0.00 in0.0 mm 0.00 in0.0 mm
02:20 PM 33.1°F0.6°C 21.2°F-6.0°C 61% 14.8 mph E23.8 kmh E 23.3 mph37.5 kmh 29.59 in1002.0 mb 0.00 in0.0 mm 0.00 in0.0 mm 0.00 in0.0 mm
02:25 PM 33.3°F0.7°C 21.2°F-6.0°C 61% 16.2 mph E26.1 kmh E 25.5 mph41.0 kmh 29.59 in1002.0 mb 0.00 in0.0 mm 0.00 in0.0 mm 0.00 in0.0 mm
02:30 PM 33.1°F0.6°C 21.2°F-6.0°C 60% 15.4 mph E24.8 kmh E 25.5 mph41.0 kmh 29.59 in1002.0 mb 0.00 in0.0 mm 0.00 in0.0 mm 0.00 in0.0 mm
02:35 PM 33.3°F0.7°C 21.2°F-6.0°C 61% 14.1 mph E22.7 kmh E 22.1 mph35.6 kmh 29.59 in1002.0 mb 0.00 in0.0 mm 0.00 in0.0 mm 0.00 in0.0 mm
02:40 PM 33.1°F0.6°C 21.2°F-6.0°C 60% 17.4 mph E28.0 kmh E 29.5 mph47.5 kmh 29.59 in1002.0 mb 0.00 in0.0 mm 0.00 in0.0 mm 0.00 in0.0 mm
02:45 PM 33.1°F0.6°C 21.2°F-6.0°C 61% 18.4 mph E29.6 kmh E 29.5 mph47.5 kmh 29.59 in1002.0 mb 0.00 in0.0 mm 0.00 in0.0 mm 0.00 in0.0 mm
02:50 PM 33.1°F0.6°C 21.2°F-6.0°C 61% 13.7 mph E22.0 kmh E 19.5 mph31.4 kmh 29.59 in1002.0 mb 0.00 in0.0 mm 0.00 in0.0 mm 0.00 in0.0 mm
02:55 PM 33.1°F0.6°C 21.2°F-6.0°C 61% 15.3 mph ENE24.6 kmh ENE 22.6 mph36.4 kmh 29.59 in1002.0 mb 0.00 in0.0 mm 0.00 in0.0 mm 0.00 in0.0 mm
03:00 PM 33.1°F0.6°C 21.2°F-6.0°C 61% 17.3 mph E27.8 kmh E 22.6 mph36.4 kmh 29.59 in1002.0 mb 0.00 in0.0 mm 0.00 in0.0 mm 0.00 in0.0 mm
03:05 PM 33.3°F0.7°C 21.2°F-6.0°C 61% 16.1 mph E25.9 kmh E 22.6 mph36.4 kmh 29.59 in1002.0 mb 0.00 in0.0 mm 0.00 in0.0 mm 0.00 in0.0 mm
03:10 PM 33.3°F0.7°C 21.2°F-6.0°C 61% 15.5 mph E24.9 kmh E 21.0 mph33.8 kmh 29.59 in1002.0 mb 0.00 in0.0 mm 0.00 in0.0 mm 0.00 in0.0 mm
03:15 PM 33.3°F0.7°C 21.2°F-6.0°C 61% 14.6 mph E23.5 kmh E 18.1 mph29.1 kmh 29.59 in1002.0 mb 0.00 in0.0 mm 0.00 in0.0 mm 0.00 in0.0 mm
03:20 PM 33.4°F0.8°C 21.2°F-6.0°C 61% 14.6 mph E23.5 kmh E 22.6 mph36.4 kmh 29.59 in1002.0 mb 0.00 in0.0 mm 0.00 in0.0 mm 0.00 in0.0 mm
03:25 PM 33.4°F0.8°C 21.2°F-6.0°C 61% 14.0 mph E22.5 kmh E 22.6 mph36.4 kmh 29.59 in1002.0 mb 0.00 in0.0 mm 0.00 in0.0 mm 0.00 in0.0 mm
03:30 PM 33.3°F0.7°C 21.2°F-6.0°C 61% 16.1 mph ESE25.9 kmh ESE 22.6 mph36.4 kmh 29.59 in1002.0 mb 0.00 in0.0 mm 0.00 in0.0 mm 0.00 in0.0 mm
03:35 PM 33.3°F0.7°C 21.2°F-6.0°C 61% 17.8 mph E28.6 kmh E 23.0 mph37.0 kmh 29.59 in1002.0 mb 0.00 in0.0 mm 0.00 in0.0 mm 0.00 in0.0 mm
03:40 PM 33.3°F0.7°C 21.2°F-6.0°C 61% 16.7 mph E26.9 kmh E 23.0 mph37.0 kmh 29.59 in1002.0 mb 0.00 in0.0 mm 0.00 in0.0 mm 0.00 in0.0 mm
03:45 PM 33.3°F0.7°C 21.2°F-6.0°C 61% 16.5 mph E26.6 kmh E 23.7 mph38.1 kmh 29.59 in1002.0 mb 0.00 in0.0 mm 0.00 in0.0 mm 0.00 in0.0 mm
03:50 PM 33.4°F0.8°C 21.2°F-6.0°C 61% 15.6 mph E25.1 kmh E 23.7 mph38.1 kmh 29.59 in1002.0 mb 0.00 in0.0 mm 0.00 in0.0 mm 0.00 in0.0 mm
03:55 PM 33.4°F0.8°C 21.2°F-6.0°C 61% 14.4 mph E23.2 kmh E 19.9 mph32.0 kmh 29.59 in1002.0 mb 0.00 in0.0 mm 0.00 in0.0 mm 0.00 in0.0 mm
04:00 PM 33.4°F0.8°C 21.2°F-6.0°C 61% 14.3 mph E23.0 kmh E 21.5 mph34.6 kmh 29.56 in1001.0 mb 0.00 in0.0 mm 0.00 in0.0 mm 0.00 in0.0 mm
04:05 PM 33.6°F0.9°C 21.2°F-6.0°C 61% 14.9 mph E24.0 kmh E 21.5 mph34.6 kmh 29.56 in1001.0 mb 0.00 in0.0 mm 0.00 in0.0 mm 0.00 in0.0 mm
04:10 PM 33.4°F0.8°C 21.2°F-6.0°C 62% 14.3 mph E23.0 kmh E 19.5 mph31.4 kmh 29.56 in1001.0 mb 0.00 in0.0 mm 0.00 in0.0 mm 0.00 in0.0 mm
04:15 PM 33.4°F0.8°C 21.2°F-6.0°C 62% 13.5 mph E21.7 kmh E 19.5 mph31.4 kmh 29.56 in1001.0 mb 0.00 in0.0 mm 0.00 in0.0 mm 0.00 in0.0 mm
04:20 PM 33.4°F0.8°C 21.2°F-6.0°C 62% 13.6 mph E21.9 kmh E 19.5 mph31.4 kmh 29.56 in1001.0 mb 0.00 in0.0 mm 0.00 in0.0 mm 0.00 in0.0 mm
04:25 PM 33.4°F0.8°C 23.0°F-5.0°C 63% 14.8 mph E23.8 kmh E 25.3 mph40.7 kmh 29.56 in1001.0 mb 0.00 in0.0 mm 0.00 in0.0 mm 0.00 in0.0 mm
04:30 PM 33.4°F0.8°C 23.0°F-5.0°C 63% 15.3 mph ESE24.6 kmh ESE 25.3 mph40.7 kmh 29.56 in1001.0 mb 0.00 in0.0 mm 0.00 in0.0 mm 0.00 in0.0 mm
04:35 PM 33.4°F0.8°C 23.0°F-5.0°C 63% 14.0 mph E22.5 kmh E 20.6 mph33.2 kmh 29.56 in1001.0 mb 0.00 in0.0 mm 0.00 in0.0 mm 0.00 in0.0 mm
04:40 PM 33.3°F0.7°C 23.0°F-5.0°C 63% 14.6 mph E23.5 kmh E 20.6 mph33.2 kmh 29.56 in1001.0 mb 0.00 in0.0 mm 0.00 in0.0 mm 0.00 in0.0 mm
04:45 PM 33.3°F0.7°C 23.0°F-5.0°C 63% 13.2 mph E21.2 kmh E 18.1 mph29.1 kmh 29.56 in1001.0 mb 0.00 in0.0 mm 0.00 in0.0 mm 0.00 in0.0 mm
04:50 PM 33.3°F0.7°C 23.0°F-5.0°C 63% 13.6 mph E21.9 kmh E 19.9 mph32.0 kmh 29.56 in1001.0 mb 0.00 in0.0 mm 0.00 in0.0 mm 0.00 in0.0 mm
04:55 PM 33.3°F0.7°C 23.0°F-5.0°C 63% 16.1 mph E25.9 kmh E 20.1 mph32.3 kmh 29.56 in1001.0 mb 0.00 in0.0 mm 0.00 in0.0 mm 0.00 in0.0 mm
05:00 PM 33.3°F0.7°C 23.0°F-5.0°C 63% 14.6 mph E23.5 kmh E 20.1 mph32.3 kmh 29.56 in1001.0 mb 0.00 in0.0 mm 0.00 in0.0 mm 0.00 in0.0 mm
05:05 PM 33.3°F0.7°C 23.0°F-5.0°C 63% 12.3 mph E19.8 kmh E 15.2 mph24.5 kmh 29.56 in1001.0 mb 0.00 in0.0 mm 0.00 in0.0 mm 0.00 in0.0 mm
05:10 PM 33.3°F0.7°C 23.0°F-5.0°C 63% 14.7 mph E23.7 kmh E 22.1 mph35.6 kmh 29.56 in1001.0 mb 0.00 in0.0 mm 0.00 in0.0 mm 0.00 in0.0 mm
05:15 PM 33.1°F0.6°C 23.0°F-5.0°C 64% 17.0 mph E27.4 kmh E 24.6 mph39.6 kmh 29.56 in1001.0 mb 0.00 in0.0 mm 0.00 in0.0 mm 0.00 in0.0 mm
05:20 PM 33.1°F0.6°C 23.0°F-5.0°C 64% 16.1 mph E25.9 kmh E 30.2 mph48.6 kmh 29.56 in1001.0 mb 0.00 in0.0 mm 0.00 in0.0 mm 0.00 in0.0 mm
05:25 PM 33.1°F0.6°C 23.0°F-5.0°C 64% 18.2 mph E29.3 kmh E 30.2 mph48.6 kmh 29.56 in1001.0 mb 0.00 in0.0 mm 0.00 in0.0 mm 0.00 in0.0 mm
05:30 PM 33.1°F0.6°C 23.0°F-5.0°C 64% 19.3 mph E31.1 kmh E 27.1 mph43.6 kmh 29.56 in1001.0 mb 0.00 in0.0 mm 0.00 in0.0 mm 0.00 in0.0 mm
05:35 PM 33.1°F0.6°C 23.0°F-5.0°C 64% 16.5 mph E26.6 kmh E 26.8 mph43.1 kmh 29.56 in1001.0 mb 0.00 in0.0 mm 0.00 in0.0 mm 0.00 in0.0 mm
05:40 PM 33.1°F0.6°C 23.0°F-5.0°C 64% 13.9 mph E22.4 kmh E 17.4 mph28.0 kmh 29.56 in1001.0 mb 0.00 in0.0 mm 0.00 in0.0 mm 0.00 in0.0 mm
05:45 PM 33.1°F0.6°C 23.0°F-5.0°C 64% 15.9 mph E25.6 kmh E 22.1 mph35.6 kmh 29.56 in1001.0 mb 0.00 in0.0 mm 0.00 in0.0 mm 0.00 in0.0 mm
05:50 PM 32.9°F0.5°C 23.0°F-5.0°C 64% 15.5 mph E24.9 kmh E 22.1 mph35.6 kmh 29.56 in1001.0 mb 0.00 in0.0 mm 0.00 in0.0 mm 0.00 in0.0 mm
05:55 PM 32.9°F0.5°C 23.0°F-5.0°C 64% 10.6 mph E17.1 kmh E 16.6 mph26.7 kmh 29.56 in1001.0 mb 0.00 in0.0 mm 0.00 in0.0 mm 0.00 in0.0 mm
06:00 PM 32.9°F0.5°C 23.0°F-5.0°C 64% 11.3 mph ENE18.2 kmh ENE 22.1 mph35.6 kmh 29.56 in1001.0 mb 0.00 in0.0 mm 0.00 in0.0 mm 0.00 in0.0 mm
06:05 PM 32.9°F0.5°C 23.0°F-5.0°C 64% 14.5 mph E23.3 kmh E 22.4 mph36.0 kmh 29.56 in1001.0 mb 0.00 in0.0 mm 0.00 in0.0 mm 0.00 in0.0 mm
06:10 PM 32.9°F0.5°C 23.0°F-5.0°C 64% 16.4 mph E26.4 kmh E 23.3 mph37.5 kmh 29.56 in1001.0 mb 0.00 in0.0 mm 0.00 in0.0 mm 0.00 in0.0 mm
06:15 PM 33.1°F0.6°C 23.0°F-5.0°C 64% 15.7 mph ENE25.3 kmh ENE 23.3 mph37.5 kmh 29.56 in1001.0 mb 0.00 in0.0 mm 0.00 in0.0 mm 0.00 in0.0 mm
06:20 PM 33.1°F0.6°C 23.0°F-5.0°C 64% 14.7 mph E23.7 kmh E 20.1 mph32.3 kmh 29.56 in1001.0 mb 0.00 in0.0 mm 0.00 in0.0 mm 0.00 in0.0 mm
06:25 PM 32.9°F0.5°C 23.0°F-5.0°C 65% 14.2 mph E22.9 kmh E 20.6 mph33.2 kmh 29.56 in1001.0 mb 0.00 in0.0 mm 0.00 in0.0 mm 0.00 in0.0 mm
06:30 PM 32.9°F0.5°C 23.0°F-5.0°C 65% 14.2 mph E22.9 kmh E 20.6 mph33.2 kmh 29.56 in1001.0 mb 0.00 in0.0 mm 0.00 in0.0 mm 0.00 in0.0 mm
06:35 PM 32.9°F0.5°C 23.0°F-5.0°C 65% 17.4 mph E28.0 kmh E 26.4 mph42.5 kmh 29.56 in1001.0 mb 0.00 in0.0 mm 0.00 in0.0 mm 0.00 in0.0 mm
06:40 PM 32.9°F0.5°C 23.0°F-5.0°C 65% 16.6 mph E26.7 kmh E 26.4 mph42.5 kmh 29.56 in1001.0 mb 0.00 in0.0 mm 0.00 in0.0 mm 0.00 in0.0 mm
06:45 PM 32.9°F0.5°C 23.0°F-5.0°C 65% 16.4 mph E26.4 kmh E 24.6 mph39.6 kmh 29.56 in1001.0 mb 0.00 in0.0 mm 0.00 in0.0 mm 0.00 in0.0 mm
06:50 PM 32.9°F0.5°C 23.0°F-5.0°C 65% 15.2 mph E24.5 kmh E 24.6 mph39.6 kmh 29.56 in1001.0 mb 0.00 in0.0 mm 0.00 in0.0 mm 0.00 in0.0 mm
06:55 PM 32.9°F0.5°C 23.0°F-5.0°C 65% 11.8 mph E19.0 kmh E 14.5 mph23.3 kmh 29.56 in1001.0 mb 0.00 in0.0 mm 0.00 in0.0 mm 0.00 in0.0 mm
07:00 PM 32.9°F0.5°C 23.0°F-5.0°C 65% 11.8 mph E19.0 kmh E 13.6 mph21.9 kmh 29.56 in1001.0 mb 0.00 in0.0 mm 0.00 in0.0 mm 0.00 in0.0 mm
07:05 PM 32.9°F0.5°C 23.0°F-5.0°C 65% 14.4 mph E23.2 kmh E 23.5 mph37.8 kmh 29.56 in1001.0 mb 0.00 in0.0 mm 0.00 in0.0 mm 0.00 in0.0 mm
07:10 PM 32.9°F0.5°C 23.0°F-5.0°C 65% 14.6 mph E23.5 kmh E 23.5 mph37.8 kmh 29.56 in1001.0 mb 0.00 in0.0 mm 0.00 in0.0 mm 0.00 in0.0 mm
07:15 PM 32.9°F0.5°C 23.0°F-5.0°C 65% 14.2 mph E22.9 kmh E 19.2 mph30.9 kmh 29.56 in1001.0 mb 0.00 in0.0 mm 0.00 in0.0 mm 0.00 in0.0 mm
07:20 PM 32.9°F0.5°C 23.0°F-5.0°C 65% 15.3 mph E24.6 kmh E 19.2 mph30.9 kmh 29.56 in1001.0 mb 0.00 in0.0 mm 0.00 in0.0 mm 0.00 in0.0 mm
07:25 PM 32.9°F0.5°C 23.0°F-5.0°C 65% 15.2 mph E24.5 kmh E 21.0 mph33.8 kmh 29.56 in1001.0 mb 0.00 in0.0 mm 0.00 in0.0 mm 0.00 in0.0 mm
07:30 PM 32.9°F0.5°C 23.0°F-5.0°C 65% 13.2 mph E21.2 kmh E 21.0 mph33.8 kmh 29.56 in1001.0 mb 0.00 in0.0 mm 0.00 in0.0 mm 0.00 in0.0 mm
07:35 PM 33.1°F0.6°C 23.0°F-5.0°C 66% 13.8 mph E22.2 kmh E 20.1 mph32.3 kmh 29.56 in1001.0 mb 0.00 in0.0 mm 0.00 in0.0 mm 0.00 in0.0 mm
07:40 PM 33.1°F0.6°C 23.0°F-5.0°C 66% 14.4 mph E23.2 kmh E 20.1 mph32.3 kmh 29.56 in1001.0 mb 0.00 in0.0 mm 0.00 in0.0 mm 0.00 in0.0 mm
07:45 PM 32.9°F0.5°C 23.0°F-5.0°C 66% 13.7 mph E22.0 kmh E 23.7 mph38.1 kmh 29.56 in1001.0 mb 0.00 in0.0 mm 0.00 in0.0 mm 0.00 in0.0 mm
07:50 PM 33.1°F0.6°C 23.0°F-5.0°C 66% 12.2 mph E19.6 kmh E 23.7 mph38.1 kmh 29.56 in1001.0 mb 0.00 in0.0 mm 0.00 in0.0 mm 0.00 in0.0 mm
07:55 PM 33.1°F0.6°C 23.0°F-5.0°C 66% 12.6 mph E20.3 kmh E 17.4 mph28.0 kmh 29.56 in1001.0 mb 0.00 in0.0 mm 0.00 in0.0 mm 0.00 in0.0 mm
08:00 PM 33.1°F0.6°C 23.0°F-5.0°C 66% 13.2 mph E21.2 kmh E 17.4 mph28.0 kmh 29.56 in1001.0 mb 0.00 in0.0 mm 0.00 in0.0 mm 0.00 in0.0 mm
08:05 PM 33.1°F0.6°C 23.0°F-5.0°C 66% 12.6 mph E20.3 kmh E 15.2 mph24.5 kmh 29.56 in1001.0 mb 0.00 in0.0 mm 0.00 in0.0 mm 0.00 in0.0 mm
08:10 PM 33.1°F0.6°C 23.0°F-5.0°C 66% 13.0 mph E20.9 kmh E 17.0 mph27.4 kmh 29.56 in1001.0 mb 0.00 in0.0 mm 0.00 in0.0 mm 0.00 in0.0 mm
08:15 PM 33.1°F0.6°C 23.0°F-5.0°C 66% 12.3 mph E19.8 kmh E 17.0 mph27.4 kmh 29.56 in1001.0 mb 0.00 in0.0 mm 0.00 in0.0 mm 0.00 in0.0 mm
08:20 PM 33.1°F0.6°C 23.0°F-5.0°C 66% 11.5 mph E18.5 kmh E 16.3 mph26.2 kmh 29.56 in1001.0 mb 0.00 in0.0 mm 0.00 in0.0 mm 0.00 in0.0 mm
08:25 PM 33.1°F0.6°C 23.0°F-5.0°C 66% 14.1 mph E22.7 kmh E 20.8 mph33.5 kmh 29.56 in1001.0 mb 0.00 in0.0 mm 0.00 in0.0 mm 0.00 in0.0 mm
08:30 PM 33.1°F0.6°C 23.0°F-5.0°C 66% 13.3 mph E21.4 kmh E 20.8 mph33.5 kmh 29.56 in1001.0 mb 0.00 in0.0 mm 0.00 in0.0 mm 0.00 in0.0 mm
08:35 PM 33.1°F0.6°C 23.0°F-5.0°C 66% 11.8 mph E19.0 kmh E 20.8 mph33.5 kmh 29.56 in1001.0 mb 0.00 in0.0 mm 0.00 in0.0 mm 0.00 in0.0 mm
08:40 PM 32.9°F0.5°C 23.0°F-5.0°C 66% 13.9 mph E22.4 kmh E 16.8 mph27.0 kmh 29.56 in1001.0 mb 0.00 in0.0 mm 0.00 in0.0 mm 0.00 in0.0 mm
08:45 PM 32.9°F0.5°C 23.0°F-5.0°C 66% 15.5 mph E24.9 kmh E 19.5 mph31.4 kmh 29.56 in1001.0 mb 0.00 in0.0 mm 0.00 in0.0 mm 0.00 in0.0 mm
08:50 PM 32.9°F0.5°C 23.0°F-5.0°C 66% 15.9 mph E25.6 kmh E 23.5 mph37.8 kmh 29.56 in1001.0 mb 0.00 in0.0 mm 0.00 in0.0 mm 0.00 in0.0 mm
08:55 PM 32.9°F0.5°C 23.0°F-5.0°C 66% 13.7 mph E22.0 kmh E 23.5 mph37.8 kmh 29.56 in1001.0 mb 0.00 in0.0 mm 0.00 in0.0 mm 0.00 in0.0 mm
09:00 PM 32.9°F0.5°C 23.0°F-5.0°C 66% 10.5 mph E16.9 kmh E 23.5 mph37.8 kmh 29.56 in1001.0 mb 0.00 in0.0 mm 0.00 in0.0 mm 0.00 in0.0 mm
09:05 PM 32.9°F0.5°C 23.0°F-5.0°C 66% 9.9 mph E15.9 kmh E 13.9 mph22.4 kmh 29.56 in1001.0 mb 0.00 in0.0 mm 0.00 in0.0 mm 0.00 in0.0 mm
09:10 PM 32.9°F0.5°C 23.0°F-5.0°C 66% 12.6 mph E20.3 kmh E 23.7 mph38.1 kmh 29.56 in1001.0 mb 0.00 in0.0 mm 0.00 in0.0 mm 0.00 in0.0 mm
09:15 PM 32.9°F0.5°C 23.0°F-5.0°C 66% 13.3 mph E21.4 kmh E 23.7 mph38.1 kmh 29.56 in1001.0 mb 0.00 in0.0 mm 0.00 in0.0 mm 0.00 in0.0 mm
09:20 PM 32.9°F0.5°C 23.0°F-5.0°C 66% 12.8 mph E20.6 kmh E 14.8 mph23.8 kmh 29.56 in1001.0 mb 0.00 in0.0 mm 0.00 in0.0 mm 0.00 in0.0 mm
09:25 PM 32.9°F0.5°C 23.0°F-5.0°C 66% 12.8 mph E20.6 kmh E 17.0 mph27.4 kmh 29.56 in1001.0 mb 0.00 in0.0 mm 0.00 in0.0 mm 0.00 in0.0 mm
09:30 PM 32.9°F0.5°C 23.0°F-5.0°C 67% 13.7 mph E22.0 kmh E 24.2 mph38.9 kmh 29.56 in1001.0 mb 0.00 in0.0 mm 0.00 in0.0 mm 0.00 in0.0 mm
09:35 PM 32.9°F0.5°C 23.0°F-5.0°C 67% 16.5 mph E26.6 kmh E 26.8 mph43.1 kmh 29.56 in1001.0 mb 0.00 in0.0 mm 0.00 in0.0 mm 0.00 in0.0 mm
09:40 PM 32.7°F0.4°C 23.0°F-5.0°C 67% 16.4 mph E26.4 kmh E 26.8 mph43.1 kmh 29.56 in1001.0 mb 0.00 in0.0 mm 0.00 in0.0 mm 0.00 in0.0 mm
09:45 PM 32.7°F0.4°C 23.0°F-5.0°C 67% 12.6 mph E20.3 kmh E 17.2 mph27.7 kmh 29.53 in1000.0 mb 0.00 in0.0 mm 0.00 in0.0 mm 0.00 in0.0 mm
09:50 PM 32.7°F0.4°C 23.0°F-5.0°C 66% 13.9 mph E22.4 kmh E 21.0 mph33.8 kmh 29.53 in1000.0 mb 0.00 in0.0 mm 0.00 in0.0 mm 0.00 in0.0 mm
09:55 PM 32.7°F0.4°C 23.0°F-5.0°C 66% 15.2 mph E24.5 kmh E 21.0 mph33.8 kmh 29.53 in1000.0 mb 0.00 in0.0 mm 0.00 in0.0 mm 0.00 in0.0 mm
10:00 PM 32.7°F0.4°C 23.0°F-5.0°C 66% 14.7 mph E23.7 kmh E 21.0 mph33.8 kmh 29.56 in1001.0 mb 0.00 in0.0 mm 0.00 in0.0 mm 0.00 in0.0 mm
10:05 PM 32.5°F0.3°C 23.0°F-5.0°C 66% 13.2 mph E21.2 kmh E 21.0 mph33.8 kmh 29.56 in1001.0 mb 0.00 in0.0 mm 0.00 in0.0 mm 0.00 in0.0 mm
10:10 PM 32.5°F0.3°C 23.0°F-5.0°C 66% 11.6 mph E18.7 kmh E 17.0 mph27.4 kmh 29.56 in1001.0 mb 0.00 in0.0 mm 0.00 in0.0 mm 0.00 in0.0 mm
10:15 PM 32.5°F0.3°C 23.0°F-5.0°C 66% 12.1 mph ESE19.5 kmh ESE 17.0 mph27.4 kmh 29.53 in1000.0 mb 0.00 in0.0 mm 0.00 in0.0 mm 0.00 in0.0 mm
10:20 PM 32.4°F0.2°C 21.2°F-6.0°C 66% 11.8 mph E19.0 kmh E 17.0 mph27.4 kmh 29.53 in1000.0 mb 0.00 in0.0 mm 0.00 in0.0 mm 0.00 in0.0 mm
10:25 PM 32.4°F0.2°C 21.2°F-6.0°C 66% 11.6 mph E18.7 kmh E 14.5 mph23.3 kmh 29.53 in1000.0 mb 0.00 in0.0 mm 0.00 in0.0 mm 0.00 in0.0 mm
10:30 PM 32.4°F0.2°C 21.2°F-6.0°C 66% 12.7 mph ESE20.4 kmh ESE 16.3 mph26.2 kmh 29.53 in1000.0 mb 0.00 in0.0 mm 0.00 in0.0 mm 0.00 in0.0 mm
10:35 PM 32.4°F0.2°C 21.2°F-6.0°C 66% 14.3 mph E23.0 kmh E 18.1 mph29.1 kmh 29.53 in1000.0 mb 0.00 in0.0 mm 0.00 in0.0 mm 0.00 in0.0 mm
10:40 PM 32.4°F0.2°C 21.2°F-6.0°C 66% 14.6 mph E23.5 kmh E 18.1 mph29.1 kmh 29.53 in1000.0 mb 0.00 in0.0 mm 0.00 in0.0 mm 0.00 in0.0 mm
10:45 PM 32.4°F0.2°C 21.2°F-6.0°C 67% 12.5 mph E20.1 kmh E 14.8 mph23.8 kmh 29.53 in1000.0 mb 0.00 in0.0 mm 0.00 in0.0 mm 0.00 in0.0 mm
10:50 PM 32.4°F0.2°C 21.2°F-6.0°C 67% 10.2 mph E16.4 kmh E 12.1 mph19.5 kmh 29.53 in1000.0 mb 0.00 in0.0 mm 0.00 in0.0 mm 0.00 in0.0 mm
10:55 PM 32.4°F0.2°C 21.2°F-6.0°C 67% 12.4 mph E20.0 kmh E 15.4 mph24.8 kmh 29.53 in1000.0 mb 0.00 in0.0 mm 0.00 in0.0 mm 0.00 in0.0 mm
11:00 PM 32.4°F0.2°C 21.2°F-6.0°C 68% 13.1 mph E21.1 kmh E 15.4 mph24.8 kmh 29.53 in1000.0 mb 0.00 in0.0 mm 0.00 in0.0 mm 0.00 in0.0 mm
11:05 PM 32.4°F0.2°C 21.2°F-6.0°C 68% 10.3 mph E16.6 kmh E 14.5 mph23.3 kmh 29.53 in1000.0 mb 0.00 in0.0 mm 0.00 in0.0 mm 0.00 in0.0 mm
11:10 PM 32.4°F0.2°C 21.2°F-6.0°C 67% 11.9 mph E19.2 kmh E 25.1 mph40.4 kmh 29.53 in1000.0 mb 0.00 in0.0 mm 0.00 in0.0 mm 0.00 in0.0 mm
11:15 PM 32.4°F0.2°C 21.2°F-6.0°C 67% 13.5 mph E21.7 kmh E 25.1 mph40.4 kmh 29.53 in1000.0 mb 0.00 in0.0 mm 0.00 in0.0 mm 0.00 in0.0 mm
11:20 PM 32.4°F0.2°C 21.2°F-6.0°C 67% 12.8 mph E20.6 kmh E 25.1 mph40.4 kmh 29.53 in1000.0 mb 0.00 in0.0 mm 0.00 in0.0 mm 0.00 in0.0 mm
11:25 PM 32.4°F0.2°C 21.2°F-6.0°C 67% 13.8 mph E22.2 kmh E 20.6 mph33.2 kmh 29.53 in1000.0 mb 0.00 in0.0 mm 0.00 in0.0 mm 0.00 in0.0 mm
11:30 PM 32.2°F0.1°C 21.2°F-6.0°C 68% 14.2 mph E22.9 kmh E 20.6 mph33.2 kmh 29.53 in1000.0 mb 0.00 in0.0 mm 0.00 in0.0 mm 0.00 in0.0 mm
11:35 PM 32.2°F0.1°C 21.2°F-6.0°C 68% 10.9 mph E17.5 kmh E 14.8 mph23.8 kmh 29.53 in1000.0 mb 0.00 in0.0 mm 0.00 in0.0 mm 0.00 in0.0 mm
11:40 PM 32.2°F0.1°C 21.2°F-6.0°C 68% 10.6 mph E17.1 kmh E 14.8 mph23.8 kmh 29.53 in1000.0 mb 0.00 in0.0 mm 0.00 in0.0 mm 0.00 in0.0 mm
11:45 PM 32.2°F0.1°C 21.2°F-6.0°C 68% 10.4 mph E16.7 kmh E 14.8 mph23.8 kmh 29.53 in1000.0 mb 0.00 in0.0 mm 0.00 in0.0 mm 0.00 in0.0 mm
11:50 PM 32.2°F0.1°C 21.2°F-6.0°C 68% 9.9 mph E15.9 kmh E 12.5 mph20.1 kmh 29.53 in1000.0 mb 0.00 in0.0 mm 0.00 in0.0 mm 0.00 in0.0 mm
11:55 PM 32.2°F0.1°C 21.2°F-6.0°C 68% 10.3 mph E16.6 kmh E 13.0 mph20.9 kmh 29.53 in1000.0 mb 0.00 in0.0 mm 0.00 in0.0 mm 0.00 in0.0 mm